createdAt,value
2018-09-15T00:01:01.244Z,16.00
2018-09-15T00:03:30.461Z,16.00
2018-09-15T00:05:59.666Z,16.00
2018-09-15T00:08:28.881Z,16.00
2018-09-15T00:10:58.033Z,16.10
2018-09-15T00:13:27.304Z,16.10
2018-09-15T00:15:56.485Z,16.10
2018-09-15T00:18:25.611Z,16.10
2018-09-15T00:20:54.641Z,16.10
2018-09-15T00:23:23.751Z,16.10
2018-09-15T00:25:52.860Z,16.20
2018-09-15T00:28:27.304Z,16.20
2018-09-15T00:30:56.330Z,16.20
2018-09-15T00:33:25.447Z,16.10
2018-09-15T00:35:54.630Z,16.10
2018-09-15T00:38:23.730Z,16.10
2018-09-15T00:40:52.830Z,16.00
2018-09-15T00:43:21.996Z,16.00
2018-09-15T00:45:51.169Z,16.00
2018-09-15T00:48:20.380Z,15.90
2018-09-15T00:50:49.478Z,15.90
2018-09-15T00:53:18.709Z,15.80
2018-09-15T00:55:47.819Z,15.80
2018-09-15T00:58:16.935Z,15.80
2018-09-15T01:00:46.056Z,15.80
2018-09-15T01:03:15.206Z,15.80
2018-09-15T01:05:44.304Z,15.70
2018-09-15T01:08:13.482Z,15.70
2018-09-15T01:10:42.639Z,15.70
2018-09-15T01:13:11.653Z,15.70
2018-09-15T01:15:40.854Z,15.70
2018-09-15T01:18:10.387Z,15.70
2018-09-15T01:20:39.444Z,15.70
2018-09-15T01:23:08.643Z,15.70
2018-09-15T01:25:37.758Z,15.70
2018-09-15T01:28:06.869Z,15.60
2018-09-15T01:30:36.024Z,15.60
2018-09-15T01:33:05.158Z,15.60
2018-09-15T01:35:34.265Z,15.60
2018-09-15T01:38:03.443Z,15.60
2018-09-15T01:40:32.516Z,15.50
2018-09-15T01:43:01.618Z,15.50
2018-09-15T01:45:30.820Z,15.50
2018-09-15T01:47:59.893Z,15.60
2018-09-15T01:50:29.042Z,15.50
2018-09-15T01:52:58.144Z,15.50
2018-09-15T01:55:27.279Z,15.40
2018-09-15T01:57:56.439Z,15.40
2018-09-15T02:00:27.246Z,15.40
2018-09-15T02:02:56.381Z,15.40
2018-09-15T02:05:25.473Z,15.50
2018-09-15T02:07:54.538Z,15.50
2018-09-15T02:10:23.602Z,15.50
2018-09-15T02:12:52.752Z,15.50
2018-09-15T02:15:22.075Z,15.40
2018-09-15T02:17:51.232Z,15.40
2018-09-15T02:20:20.313Z,15.30
2018-09-15T02:22:49.445Z,15.30
2018-09-15T02:25:18.537Z,15.20
2018-09-15T02:27:47.684Z,15.10
2018-09-15T02:30:16.792Z,15.10
2018-09-15T02:32:45.870Z,15.10
2018-09-15T02:35:14.920Z,15.00
2018-09-15T02:37:44.153Z,15.00
2018-09-15T02:40:13.260Z,15.00
2018-09-15T02:42:42.419Z,15.00
2018-09-15T02:45:12.081Z,14.90
2018-09-15T02:47:41.165Z,14.90
2018-09-15T02:50:10.270Z,14.90
2018-09-15T02:52:39.475Z,14.90
2018-09-15T02:55:08.644Z,14.90
2018-09-15T02:57:37.775Z,14.80
2018-09-15T03:00:07.287Z,14.80
2018-09-15T03:02:36.459Z,14.70
2018-09-15T03:05:05.666Z,14.70
2018-09-15T03:07:34.733Z,14.70
2018-09-15T03:10:03.871Z,14.60
2018-09-15T03:12:33.051Z,14.60
2018-09-15T03:15:02.171Z,14.60
2018-09-15T03:17:31.374Z,14.60
2018-09-15T03:20:00.425Z,14.60
2018-09-15T03:22:29.628Z,14.50
2018-09-15T03:24:58.726Z,14.50
2018-09-15T03:27:27.816Z,14.50
2018-09-15T03:29:56.980Z,14.60
2018-09-15T03:32:26.059Z,14.60
2018-09-15T03:34:55.260Z,14.60
2018-09-15T03:37:24.512Z,14.70
2018-09-15T03:39:53.562Z,14.70
2018-09-15T03:42:26.655Z,14.70
2018-09-15T03:44:55.705Z,14.80
2018-09-15T03:47:24.840Z,14.80
2018-09-15T03:49:53.902Z,14.80
2018-09-15T03:52:23.135Z,14.90
2018-09-15T03:54:52.214Z,14.90
2018-09-15T03:57:21.275Z,14.90
2018-09-15T03:59:50.524Z,15.00
2018-09-15T04:02:19.599Z,15.10
2018-09-15T04:04:48.820Z,15.20
2018-09-15T04:07:17.876Z,15.20
2018-09-15T04:09:47.090Z,15.30
2018-09-15T04:12:16.160Z,15.30
2018-09-15T04:14:45.317Z,15.30
2018-09-15T04:17:14.442Z,15.30
2018-09-15T04:19:47.515Z,15.30
2018-09-15T04:22:16.700Z,15.30
2018-09-15T04:24:45.916Z,15.30
2018-09-15T04:27:15.017Z,15.30
2018-09-15T04:29:44.185Z,15.30
2018-09-15T04:32:13.369Z,15.30
2018-09-15T04:34:42.621Z,15.30
2018-09-15T04:37:11.711Z,15.30
2018-09-15T04:39:40.839Z,15.20
2018-09-15T04:42:10.055Z,15.30
2018-09-15T04:44:39.169Z,15.30
2018-09-15T04:47:08.289Z,15.30
2018-09-15T04:49:37.469Z,15.30
2018-09-15T04:52:06.620Z,15.20
2018-09-15T04:54:35.654Z,15.20
2018-09-15T04:57:04.751Z,15.20
2018-09-15T04:59:33.783Z,15.20
2018-09-15T05:02:02.946Z,15.20
2018-09-15T05:04:32.089Z,15.20
2018-09-15T05:07:01.325Z,15.20
2018-09-15T05:09:30.513Z,15.20
2018-09-15T05:11:59.620Z,15.20
2018-09-15T05:14:28.799Z,15.20
2018-09-15T05:16:57.945Z,15.20
2018-09-15T05:19:27.063Z,15.20
2018-09-15T05:21:56.175Z,15.20
2018-09-15T05:24:25.431Z,15.30
2018-09-15T05:26:54.601Z,15.30
2018-09-15T05:29:23.854Z,15.30
2018-09-15T05:31:53.028Z,15.20
2018-09-15T05:34:22.232Z,15.20
2018-09-15T05:36:51.331Z,15.20
2018-09-15T05:39:20.431Z,15.10
2018-09-15T05:41:49.606Z,15.20
2018-09-15T05:44:18.794Z,15.20
2018-09-15T05:46:48.000Z,15.20
2018-09-15T05:49:17.114Z,15.20
2018-09-15T05:51:52.677Z,15.10
2018-09-15T05:54:21.845Z,15.10
2018-09-15T05:56:51.121Z,15.20
2018-09-15T05:59:20.223Z,15.20
2018-09-15T06:01:49.577Z,15.30
2018-09-15T06:04:18.755Z,15.30
2018-09-15T06:06:48.024Z,15.30
2018-09-15T06:09:17.235Z,15.30
2018-09-15T06:11:46.371Z,15.40
2018-09-15T06:14:15.581Z,15.40
2018-09-15T06:16:44.778Z,15.50
2018-09-15T06:19:13.896Z,15.60
2018-09-15T06:21:43.080Z,15.60
2018-09-15T06:24:12.160Z,15.70
2018-09-15T06:26:41.276Z,15.70
2018-09-15T06:29:10.468Z,15.80
2018-09-15T06:31:39.710Z,15.80
2018-09-15T06:34:08.880Z,15.90
2018-09-15T06:36:38.066Z,15.90
2018-09-15T06:39:09.553Z,16.00
2018-09-15T06:41:38.814Z,16.00
2018-09-15T06:44:08.038Z,16.10
2018-09-15T06:46:37.197Z,16.10
2018-09-15T06:49:06.414Z,16.20
2018-09-15T06:51:35.543Z,16.20
2018-09-15T06:54:04.709Z,16.20
2018-09-15T06:56:33.838Z,16.20
2018-09-15T06:59:03.046Z,16.30
2018-09-15T07:01:32.214Z,16.30
2018-09-15T07:04:01.450Z,16.40
2018-09-15T07:06:30.557Z,16.40
2018-09-15T07:08:59.608Z,16.50
2018-09-15T07:11:28.715Z,16.60
2018-09-15T07:13:57.845Z,16.60
2018-09-15T07:16:27.055Z,16.70
2018-09-15T07:18:56.147Z,16.80
2018-09-15T07:21:25.224Z,16.80
2018-09-15T07:23:54.409Z,16.90
2018-09-15T07:26:23.653Z,17.00
2018-09-15T07:28:52.829Z,17.20
2018-09-15T07:31:22.027Z,17.40
2018-09-15T07:33:51.103Z,17.50
2018-09-15T07:36:20.269Z,17.70
2018-09-15T07:38:49.526Z,17.80
2018-09-15T07:41:18.672Z,18.00
2018-09-15T07:43:48.175Z,18.20
2018-09-15T07:46:17.315Z,18.40
2018-09-15T07:48:46.378Z,18.50
2018-09-15T07:51:15.470Z,18.70
2018-09-15T07:53:44.552Z,18.90
2018-09-15T07:56:13.626Z,19.10
2018-09-15T07:58:42.856Z,19.30
2018-09-15T08:01:11.950Z,19.60
2018-09-15T08:03:41.108Z,19.90
2018-09-15T08:06:10.358Z,20.20
2018-09-15T08:08:39.495Z,20.50
2018-09-15T08:11:08.753Z,20.80
2018-09-15T08:13:37.743Z,21.20
2018-09-15T08:16:06.839Z,21.50
2018-09-15T08:18:35.931Z,21.70
2018-09-15T08:21:05.010Z,21.70
2018-09-15T08:23:34.193Z,21.60
2018-09-15T08:26:03.320Z,21.50
2018-09-15T08:28:32.482Z,21.70
2018-09-15T08:31:01.666Z,22.10
2018-09-15T08:33:30.785Z,22.40
2018-09-15T08:35:59.970Z,22.50
2018-09-15T08:38:29.096Z,22.60
2018-09-15T08:40:58.352Z,22.60
2018-09-15T08:43:27.499Z,22.60
2018-09-15T08:45:56.690Z,22.60
2018-09-15T08:48:25.821Z,22.60
2018-09-15T08:50:54.856Z,22.60
2018-09-15T08:53:24.038Z,22.60
2018-09-15T08:55:53.345Z,22.60
2018-09-15T08:58:22.432Z,22.60
2018-09-15T09:00:51.500Z,22.70
2018-09-15T09:03:20.750Z,22.60
2018-09-15T09:05:49.972Z,22.50
2018-09-15T09:08:19.058Z,22.40
2018-09-15T09:10:48.157Z,22.30
2018-09-15T09:13:17.281Z,22.20
2018-09-15T09:15:46.494Z,22.20
2018-09-15T09:18:15.669Z,22.20
2018-09-15T09:20:44.828Z,22.10
2018-09-15T09:23:14.135Z,21.90
2018-09-15T09:25:43.387Z,21.80
2018-09-15T09:28:12.560Z,21.70
2018-09-15T09:30:41.830Z,21.60
2018-09-15T09:33:11.181Z,21.50
2018-09-15T09:35:40.272Z,21.80
2018-09-15T09:38:09.525Z,22.20
2018-09-15T09:40:38.784Z,22.40
2018-09-15T09:43:11.034Z,22.40
2018-09-15T09:45:40.190Z,22.50
2018-09-15T09:48:09.409Z,22.60
2018-09-15T09:50:38.552Z,22.70
2018-09-15T09:53:07.938Z,22.90
2018-09-15T09:55:37.053Z,23.00
2018-09-15T09:58:06.365Z,23.20
2018-09-15T10:00:40.525Z,23.60
2018-09-15T10:03:09.671Z,24.00
2018-09-15T10:05:38.818Z,24.20
2018-09-15T10:08:08.035Z,24.20
2018-09-15T10:10:37.095Z,24.10
2018-09-15T10:13:06.338Z,24.30
2018-09-15T10:15:35.546Z,24.50
2018-09-15T10:18:04.729Z,24.50
2018-09-15T10:20:34.131Z,24.50
2018-09-15T10:23:03.244Z,24.40
2018-09-15T10:25:32.429Z,24.30
2018-09-15T10:28:01.558Z,24.20
2018-09-15T10:30:30.686Z,24.10
2018-09-15T10:32:59.793Z,24.30
2018-09-15T10:35:28.979Z,24.30
2018-09-15T10:37:58.126Z,24.10
2018-09-15T10:40:31.698Z,23.80
2018-09-15T10:43:00.791Z,23.90
2018-09-15T10:45:29.968Z,24.30
2018-09-15T10:47:59.163Z,24.70
2018-09-15T10:50:28.385Z,24.90
2018-09-15T10:52:57.609Z,25.20
2018-09-15T10:55:26.613Z,25.50
2018-09-15T10:57:55.778Z,25.50
2018-09-15T11:00:24.934Z,25.50
2018-09-15T11:02:54.044Z,25.50
2018-09-15T11:05:23.223Z,25.50
2018-09-15T11:07:52.377Z,25.40
2018-09-15T11:10:21.626Z,25.20
2018-09-15T11:12:50.734Z,25.00
2018-09-15T11:15:29.371Z,24.90
2018-09-15T11:17:58.540Z,24.50
2018-09-15T11:20:27.727Z,24.40
2018-09-15T11:22:56.847Z,24.10
2018-09-15T11:25:26.016Z,24.10
2018-09-15T11:27:55.139Z,23.90
2018-09-15T11:30:24.358Z,23.80
2018-09-15T11:32:53.468Z,23.60
2018-09-15T11:35:22.644Z,23.50
2018-09-15T11:37:51.810Z,23.50
2018-09-15T11:40:20.877Z,23.50
2018-09-15T11:42:50.188Z,23.50
2018-09-15T11:45:19.285Z,23.60
2018-09-15T11:47:48.643Z,23.60
2018-09-15T11:50:17.732Z,23.70
2018-09-15T11:52:47.595Z,23.80
2018-09-15T11:55:17.050Z,23.90
2018-09-15T11:57:46.269Z,24.10
2018-09-15T12:00:18.736Z,24.40
2018-09-15T12:02:47.969Z,24.50
2018-09-15T12:05:17.151Z,24.60
2018-09-15T12:07:46.457Z,24.80
2018-09-15T12:10:15.560Z,24.90
2018-09-15T12:12:44.841Z,25.10
2018-09-15T12:15:14.090Z,25.30
2018-09-15T12:17:43.251Z,25.60
2018-09-15T12:20:12.420Z,25.70
2018-09-15T12:22:41.695Z,26.10
2018-09-15T12:25:11.035Z,26.50
2018-09-15T12:27:40.491Z,26.70
2018-09-15T12:30:09.834Z,26.90
2018-09-15T12:32:38.949Z,27.10
2018-09-15T12:35:08.101Z,27.30
2018-09-15T12:37:37.330Z,27.30
2018-09-15T12:40:06.576Z,27.60
2018-09-15T12:42:35.801Z,27.90
2018-09-15T12:45:05.163Z,28.00
2018-09-15T12:47:34.232Z,28.30
2018-09-15T12:50:04.410Z,28.50
2018-09-15T12:52:33.595Z,28.80
2018-09-15T12:55:02.790Z,29.50
2018-09-15T12:57:32.019Z,30.10
2018-09-15T13:00:01.124Z,30.60
2018-09-15T13:02:30.240Z,30.50
2018-09-15T13:04:59.478Z,29.90
2018-09-15T13:07:28.537Z,29.20
2018-09-15T13:09:57.671Z,28.50
2018-09-15T13:12:26.956Z,27.80
2018-09-15T13:14:56.185Z,27.30
2018-09-15T13:17:25.321Z,26.80
2018-09-15T13:19:54.479Z,26.40
2018-09-15T13:22:23.657Z,26.20
2018-09-15T13:24:52.846Z,25.80
2018-09-15T13:27:21.986Z,25.70
2018-09-15T13:29:51.529Z,25.50
2018-09-15T13:32:20.447Z,25.20
2018-09-15T13:34:54.272Z,25.10
2018-09-15T13:37:23.592Z,24.80
2018-09-15T13:39:52.765Z,24.60
2018-09-15T13:42:21.999Z,24.50
2018-09-15T13:44:51.164Z,24.20
2018-09-15T13:47:20.410Z,24.10
2018-09-15T13:49:49.525Z,23.80
2018-09-15T13:52:18.663Z,23.60
2018-09-15T13:54:47.874Z,23.40
2018-09-15T13:57:17.171Z,23.20
2018-09-15T13:59:46.396Z,23.10
2018-09-15T14:02:15.521Z,23.00
2018-09-15T14:04:44.762Z,23.10
2018-09-15T14:07:14.040Z,22.90
2018-09-15T14:09:43.800Z,22.90
2018-09-15T14:12:12.382Z,22.70
2018-09-15T14:14:41.548Z,22.60
2018-09-15T14:17:10.875Z,22.40
2018-09-15T14:19:39.976Z,22.40
2018-09-15T14:22:09.080Z,22.30
2018-09-15T14:24:38.206Z,22.10
2018-09-15T14:27:07.332Z,21.90
2018-09-15T14:29:36.471Z,21.70
2018-09-15T14:32:05.578Z,21.50
2018-09-15T14:34:34.758Z,21.50
2018-09-15T14:37:03.984Z,21.50
2018-09-15T14:39:33.185Z,21.60
2018-09-15T14:42:02.361Z,21.60
2018-09-15T14:44:31.584Z,21.70
2018-09-15T14:47:00.622Z,21.80
2018-09-15T14:49:29.882Z,21.90
2018-09-15T14:51:59.034Z,22.00
2018-09-15T14:54:28.317Z,22.00
2018-09-15T14:56:57.510Z,22.00
2018-09-15T14:59:26.758Z,22.20
2018-09-15T15:01:56.004Z,22.40
2018-09-15T15:04:25.239Z,22.70
2018-09-15T15:06:54.560Z,22.90
2018-09-15T15:09:23.869Z,22.90
2018-09-15T15:11:53.084Z,23.10
2018-09-15T15:14:22.204Z,23.10
2018-09-15T15:16:51.480Z,23.00
2018-09-15T15:19:20.633Z,22.90
2018-09-15T15:21:49.728Z,22.70
2018-09-15T15:24:18.914Z,22.60
2018-09-15T15:26:48.142Z,22.50
2018-09-15T15:29:17.480Z,22.40
2018-09-15T15:31:46.854Z,22.40
2018-09-15T15:34:15.992Z,22.40
2018-09-15T15:36:45.240Z,22.30
2018-09-15T15:39:14.450Z,22.20
2018-09-15T15:41:43.660Z,22.10
2018-09-15T15:44:12.800Z,22.00
2018-09-15T15:46:41.995Z,21.90
2018-09-15T15:49:11.164Z,21.90
2018-09-15T15:51:40.269Z,21.70
2018-09-15T15:54:09.513Z,21.60
2018-09-15T15:56:38.614Z,21.50
2018-09-15T15:59:07.978Z,21.30
2018-09-15T16:01:37.141Z,21.10
2018-09-15T16:04:06.371Z,21.00
2018-09-15T16:06:35.621Z,20.90
2018-09-15T16:09:05.503Z,20.80
2018-09-15T16:11:34.839Z,20.70
2018-09-15T16:14:04.099Z,20.60
2018-09-15T16:16:33.324Z,20.50
2018-09-15T16:19:02.544Z,20.40
2018-09-15T16:21:31.675Z,20.30
2018-09-15T16:24:00.789Z,20.20
2018-09-15T16:26:29.904Z,20.10
2018-09-15T16:28:59.003Z,20.00
2018-09-15T16:31:28.133Z,19.90
2018-09-15T16:33:57.287Z,19.80
2018-09-15T16:36:26.395Z,19.70
2018-09-15T16:38:55.539Z,19.60
2018-09-15T16:41:24.759Z,19.50
2018-09-15T16:43:53.908Z,19.30
2018-09-15T16:46:23.115Z,19.30
2018-09-15T16:48:55.465Z,19.20
2018-09-15T16:51:27.797Z,19.20
2018-09-15T16:53:56.960Z,19.20
2018-09-15T16:56:26.034Z,19.10
2018-09-15T16:58:55.254Z,19.10
2018-09-15T17:01:24.343Z,19.00
2018-09-15T17:03:53.567Z,18.90
2018-09-15T17:06:22.762Z,18.80
2018-09-15T17:08:51.885Z,18.60
2018-09-15T17:11:21.051Z,18.50
2018-09-15T17:13:50.202Z,18.40
2018-09-15T17:16:19.608Z,18.30
2018-09-15T17:18:48.850Z,18.20
2018-09-15T17:21:17.926Z,18.10
2018-09-15T17:23:47.086Z,18.10
2018-09-15T17:26:16.138Z,18.00
2018-09-15T17:28:45.225Z,18.00
2018-09-15T17:31:14.341Z,17.90
2018-09-15T17:33:43.565Z,17.90
2018-09-15T17:36:12.755Z,17.90
2018-09-15T17:38:41.925Z,17.90
2018-09-15T17:41:11.069Z,17.90
2018-09-15T17:43:40.288Z,17.90
2018-09-15T17:46:09.451Z,18.00
2018-09-15T17:48:38.655Z,18.00
2018-09-15T17:51:07.860Z,17.90
2018-09-15T17:53:37.011Z,17.90
2018-09-15T17:56:06.112Z,17.80
2018-09-15T17:58:35.256Z,17.80
2018-09-15T18:01:04.454Z,17.80
2018-09-15T18:03:33.543Z,17.70
2018-09-15T18:06:02.672Z,17.70
2018-09-15T18:08:31.903Z,17.70
2018-09-15T18:11:01.058Z,17.60
2018-09-15T18:13:35.096Z,17.60
2018-09-15T18:16:04.219Z,17.50
2018-09-15T18:18:33.473Z,17.40
2018-09-15T18:21:02.592Z,17.40
2018-09-15T18:23:31.717Z,17.40
2018-09-15T18:26:00.888Z,17.40
2018-09-15T18:28:30.015Z,17.50
2018-09-15T18:30:59.075Z,17.50
2018-09-15T18:33:28.174Z,17.50
2018-09-15T18:35:57.243Z,17.60
2018-09-15T18:38:26.349Z,17.60
2018-09-15T18:40:55.549Z,17.50
2018-09-15T18:43:24.589Z,17.60
2018-09-15T18:45:53.745Z,17.50
2018-09-15T18:48:22.813Z,17.60
2018-09-15T18:50:52.006Z,17.50
2018-09-15T18:53:21.088Z,17.50
2018-09-15T18:55:50.219Z,17.50
2018-09-15T18:58:19.325Z,17.50
2018-09-15T19:00:48.552Z,17.50
2018-09-15T19:03:17.599Z,17.50
2018-09-15T19:05:47.324Z,17.40
2018-09-15T19:08:16.555Z,17.50
2018-09-15T19:10:45.715Z,17.50
2018-09-15T19:13:14.769Z,17.50
2018-09-15T19:15:43.877Z,17.50
2018-09-15T19:18:13.043Z,17.50
2018-09-15T19:20:42.297Z,17.50
2018-09-15T19:23:11.516Z,17.50
2018-09-15T19:25:40.609Z,17.50
2018-09-15T19:28:09.740Z,17.50
2018-09-15T19:30:38.910Z,17.50
2018-09-15T19:33:08.159Z,17.50
2018-09-15T19:35:37.318Z,17.50
2018-09-15T19:38:06.594Z,17.50
2018-09-15T19:40:35.753Z,17.50
2018-09-15T19:43:04.954Z,17.50
2018-09-15T19:45:34.215Z,17.50
2018-09-15T19:48:03.395Z,17.50
2018-09-15T19:50:32.465Z,17.50
2018-09-15T19:53:01.577Z,17.40
2018-09-15T19:55:30.753Z,17.40
2018-09-15T19:57:59.885Z,17.30
2018-09-15T20:00:28.999Z,17.40
2018-09-15T20:02:58.193Z,17.30
2018-09-15T20:05:27.354Z,17.40
2018-09-15T20:07:56.480Z,17.30
2018-09-15T20:10:25.694Z,17.30
2018-09-15T20:12:54.851Z,17.20
2018-09-15T20:15:26.135Z,17.20
2018-09-15T20:17:53.835Z,17.20
2018-09-15T20:20:22.421Z,17.30
2018-09-15T20:22:52.961Z,17.30
2018-09-15T20:25:22.160Z,17.30
2018-09-15T20:27:51.394Z,17.30
2018-09-15T20:30:20.574Z,17.20
2018-09-15T20:32:49.773Z,17.10
2018-09-15T20:35:18.919Z,17.10
2018-09-15T20:37:47.999Z,17.10
2018-09-15T20:40:17.156Z,17.10
2018-09-15T20:42:46.276Z,17.10
2018-09-15T20:45:15.352Z,17.00
2018-09-15T20:47:44.496Z,16.90
2018-09-15T20:50:13.664Z,16.90
2018-09-15T20:52:42.832Z,16.90
2018-09-15T20:55:11.923Z,16.90
2018-09-15T20:57:41.067Z,16.90
2018-09-15T21:00:11.013Z,16.90
2018-09-15T21:02:40.754Z,16.90
2018-09-15T21:05:10.178Z,16.90
2018-09-15T21:07:39.375Z,16.90
2018-09-15T21:10:08.486Z,16.80
2018-09-15T21:12:37.655Z,16.80
2018-09-15T21:15:06.840Z,16.90
2018-09-15T21:17:35.909Z,16.80
2018-09-15T21:20:05.059Z,16.80
2018-09-15T21:22:34.121Z,16.80
2018-09-15T21:25:03.333Z,16.70
2018-09-15T21:27:32.403Z,16.70
2018-09-15T21:30:01.554Z,16.70
2018-09-15T21:32:30.758Z,16.70
2018-09-15T21:34:59.937Z,16.70
2018-09-15T21:37:33.569Z,16.70
2018-09-15T21:40:02.979Z,16.70
2018-09-15T21:42:32.113Z,16.70
2018-09-15T21:45:01.353Z,16.60
2018-09-15T21:47:30.564Z,16.60
2018-09-15T21:49:59.697Z,16.50
2018-09-15T21:52:28.789Z,16.50
2018-09-15T21:54:57.939Z,16.40
2018-09-15T21:57:27.180Z,16.40
2018-09-15T21:59:56.325Z,16.40
2018-09-15T22:02:25.430Z,16.50
2018-09-15T22:04:54.544Z,16.60
2018-09-15T22:07:23.662Z,16.50
2018-09-15T22:09:52.849Z,16.50
2018-09-15T22:12:22.046Z,16.50
2018-09-15T22:14:51.260Z,16.50
2018-09-15T22:17:20.351Z,16.50
2018-09-15T22:19:49.538Z,16.50
2018-09-15T22:22:18.951Z,16.60
2018-09-15T22:24:48.069Z,16.50
2018-09-15T22:27:17.288Z,16.50
2018-09-15T22:29:46.420Z,16.50
2018-09-15T22:32:15.562Z,16.40
2018-09-15T22:34:44.681Z,16.40
2018-09-15T22:37:13.715Z,16.30
2018-09-15T22:39:42.942Z,16.40
2018-09-15T22:42:12.122Z,16.40
2018-09-15T22:44:41.279Z,16.40
2018-09-15T22:47:10.270Z,16.30
2018-09-15T22:49:39.415Z,16.20
2018-09-15T22:52:08.628Z,16.10
2018-09-15T22:54:37.830Z,16.00
2018-09-15T22:57:06.953Z,16.00
2018-09-15T22:59:36.068Z,15.90
2018-09-15T23:02:05.240Z,15.90
2018-09-15T23:04:34.408Z,15.90
2018-09-15T23:07:03.415Z,15.90
2018-09-15T23:09:38.415Z,15.80
2018-09-15T23:12:07.595Z,15.80
2018-09-15T23:14:36.710Z,15.80
2018-09-15T23:17:05.938Z,15.90
2018-09-15T23:19:35.088Z,15.90
2018-09-15T23:22:04.355Z,15.90
2018-09-15T23:24:33.562Z,15.90
2018-09-15T23:27:02.721Z,15.90
2018-09-15T23:29:31.978Z,15.90
2018-09-15T23:32:01.139Z,15.90
2018-09-15T23:34:30.304Z,15.90
2018-09-15T23:36:59.450Z,15.90
2018-09-15T23:39:28.680Z,15.80
2018-09-15T23:41:57.900Z,15.70
2018-09-15T23:44:27.146Z,15.70
2018-09-15T23:46:56.313Z,15.60
2018-09-15T23:49:25.489Z,15.50
2018-09-15T23:51:54.697Z,15.40
2018-09-15T23:54:23.920Z,15.30
2018-09-15T23:56:53.158Z,15.20
2018-09-15T23:59:22.415Z,15.10
